Time;durP1;ratioP1;P1;durP2;ratioP2;P2;SDS_P1;SDS_P2;PMS_P1;PMS_P2;Temp;Humidity;BMP_temperature;BMP_pressure;BME280_temperature;BME280_humidity;BME280_pressure;Samples;Min_cycle;Max_cycle;Signal;HPM_P1;HPM_P2
2021/03/29 00:02:21;;;;;;;5.88;3.10;;;8.90;49.60;;;7.35;48.95;97378.41;5019258;28;20033;-69
2021/03/29 00:04:47;;;;;;;6.60;3.67;;;8.80;49.60;;;7.31;48.22;97376.19;5020235;28;20067;-69
2021/03/29 00:07:12;;;;;;;10.93;3.40;;;8.80;49.30;;;7.27;48.14;97375.66;5033128;28;20040;-69
2021/03/29 00:09:38;;;;;;;8.20;3.78;;;8.70;49.20;;;7.26;49.06;97362.69;5029707;28;20048;-69
2021/03/29 00:12:08;;;;;;;5.22;3.25;;;8.70;49.70;;;7.22;50.31;97364.75;5024588;28;20659;-69
2021/03/29 00:14:34;;;;;;;7.22;3.25;;;8.70;50.30;;;7.19;49.28;97365.03;5026588;28;20033;-69
2021/03/29 00:17:00;;;;;;;5.85;3.33;;;8.70;49.70;;;7.19;49.04;97356.34;5009058;28;20071;-69
2021/03/29 00:19:30;;;;;;;4.55;2.92;;;8.60;49.70;;;7.16;49.63;97357.44;5010254;28;20099;-68
2021/03/29 00:21:56;;;;;;;5.07;3.00;;;8.60;49.80;;;7.12;48.69;97366.53;5031941;28;20033;-68
2021/03/29 00:24:22;;;;;;;6.70;3.45;;;8.50;50.00;;;7.09;49.59;97361.59;5032089;28;20772;-69
2021/03/29 00:26:48;;;;;;;9.13;3.38;;;8.50;50.30;;;7.08;48.65;97365.16;5025671;28;20045;-70
2021/03/29 00:29:13;;;;;;;6.10;2.95;;;8.50;50.50;;;7.04;49.43;97364.59;5029717;28;20447;-69
2021/03/29 00:31:39;;;;;;;9.52;3.03;;;8.50;50.80;;;7.02;49.73;97365.72;5029860;28;20448;-68
2021/03/29 00:34:05;;;;;;;10.00;3.03;;;8.40;51.00;;;7.00;49.91;97365.00;5029356;28;20064;-69
2021/03/29 00:36:31;;;;;;;6.50;3.13;;;8.40;51.10;;;6.97;49.57;97363.47;5024192;28;20458;-68
2021/03/29 00:38:56;;;;;;;7.13;3.30;;;8.50;51.40;;;7.00;49.86;97375.47;5012725;28;20025;-68
2021/03/29 00:41:22;;;;;;;5.72;3.15;;;8.50;51.80;;;6.99;50.86;97376.41;5009503;28;20033;-69
2021/03/29 00:43:48;;;;;;;7.68;3.28;;;8.50;51.90;;;6.99;50.61;97376.41;5046425;28;20116;-69
2021/03/29 00:46:15;;;;;;;9.02;3.40;;;8.50;51.90;;;6.96;49.94;97374.91;5018789;28;20121;-69
2021/03/29 00:48:41;;;;;;;6.63;3.17;;;8.50;51.90;;;6.93;50.91;97377.78;5013539;28;20033;-69
2021/03/29 00:51:11;;;;;;;4.70;2.83;;;8.50;51.90;;;6.93;51.91;97382.19;5011976;28;20040;-69
2021/03/29 00:53:40;;;;;;;9.80;3.28;;;8.50;52.00;;;6.91;51.47;97378.91;5013324;28;20248;-69
2021/03/29 00:56:06;;;;;;;6.78;3.53;;;8.50;51.90;;;6.89;51.38;97367.75;5028528;28;20069;-69
2021/03/29 00:58:32;;;;;;;5.60;3.08;;;8.40;51.90;;;6.86;50.77;97371.47;5028683;28;20033;-68
2021/03/29 01:01:11;;;;;;;8.98;3.88;;;8.40;52.20;;;6.85;52.42;97374.22;5012535;28;20153;-68
2021/03/29 01:03:40;;;;;;;5.88;2.90;;;8.40;52.00;;;6.84;51.84;97372.56;5030232;28;20049;-69
2021/03/29 01:06:10;;;;;;;5.55;2.97;;;8.30;51.90;;;6.78;51.39;97373.91;5022452;28;20047;-74
2021/03/29 01:08:42;;;;;;;7.95;3.05;;;8.30;51.90;;;6.77;51.77;97367.00;5044006;28;20024;-74
2021/03/29 01:11:12;;;;;;;5.50;3.17;;;8.30;52.30;;;6.72;52.26;97370.03;5036476;28;20072;-73
2021/03/29 01:13:51;;;;;;;8.15;3.72;;;8.20;52.20;;;6.73;52.84;97365.63;5019733;28;20072;-72
2021/03/29 01:16:19;;;;;;;4.57;2.67;;;8.20;52.40;;;6.70;51.71;97366.72;5000591;28;20575;-71
2021/03/29 01:18:45;;;;;;;6.55;3.15;;;8.20;52.40;;;6.66;51.11;97370.56;5028545;28;20065;-73
2021/03/29 01:21:56;;;;;;;9.65;3.42;;;8.20;52.60;;;6.66;53.74;97367.97;4997936;28;20436;-73
2021/03/29 01:24:39;;;;;;;6.63;3.00;;;8.20;52.80;;;6.63;53.24;97368.22;4954866;28;20043;-73
2021/03/29 01:27:05;;;;;;;6.82;3.30;;;8.10;53.10;;;6.60;51.98;97372.91;4987119;28;20120;-73
2021/03/29 01:29:31;;;;;;;5.25;2.92;;;8.10;53.10;;;6.60;51.78;97370.28;5013655;28;20525;-73
2021/03/29 01:32:01;;;;;;;5.68;3.50;;;8.20;53.10;;;6.58;52.92;97367.81;5015359;28;20652;-73
2021/03/29 01:34:29;;;;;;;6.07;2.83;;;8.10;53.30;;;6.58;52.10;97370.44;5015438;28;20091;-73
2021/03/29 01:36:55;;;;;;;5.47;3.40;;;8.10;53.30;;;6.56;52.56;97372.31;5030681;28;20279;-73
2021/03/29 01:39:21;;;;;;;6.68;3.33;;;8.10;53.50;;;6.54;52.54;97370.78;5014423;28;20186;-73
2021/03/29 01:41:46;;;;;;;5.45;3.63;;;8.10;53.80;;;6.51;52.64;97371.91;5011742;28;20060;-73
2021/03/29 01:44:12;;;;;;;6.18;3.22;;;8.10;53.90;;;6.50;52.71;97374.66;4995996;28;20033;-73
2021/03/29 01:46:38;;;;;;;5.45;3.05;;;8.10;53.90;;;6.49;52.84;97386.06;4996829;28;20064;-74
2021/03/29 01:49:04;;;;;;;83.43;53.10;;;8.10;53.90;;;6.45;52.68;97375.88;5011394;28;20065;-73
2021/03/29 01:51:30;;;;;;;38.00;24.48;;;8.00;54.70;;;6.45;52.82;97382.88;5012376;28;20034;-73
2021/03/29 01:53:55;;;;;;;27.23;18.48;;;8.10;55.10;;;6.41;53.83;97377.09;4995658;28;20029;-73
2021/03/29 01:56:21;;;;;;;11.10;5.55;;;8.10;55.90;;;6.40;53.74;97379.84;4998357;28;20076;-73
2021/03/29 01:58:47;;;;;;;6.32;3.58;;;8.00;55.70;;;6.38;53.77;97381.75;5027070;28;20061;-73
2021/03/29 02:01:13;;;;;;;6.93;3.47;;;8.00;54.80;;;6.37;53.86;97380.13;5012768;28;20505;-73
2021/03/29 02:03:40;;;;;;;7.25;3.67;;;8.00;54.90;;;6.34;53.71;97385.59;5031900;28;20574;-73
2021/03/29 02:06:06;;;;;;;44.45;25.48;;;7.90;55.00;;;6.33;53.84;97384.75;5034323;28;20027;-73
2021/03/29 02:08:32;;;;;;;49.47;29.88;;;8.00;56.20;;;6.34;54.18;97385.59;5031794;28;20034;-73
2021/03/29 02:10:58;;;;;;;16.08;10.05;;;8.00;56.90;;;6.32;54.67;97383.09;5010833;28;20497;-73
2021/03/29 02:13:34;;;;;;;6.15;3.92;;;8.10;56.10;;;6.33;55.59;97389.97;5013319;28;20025;-73
2021/03/29 02:16:03;;;;;;;29.90;19.10;;;8.00;55.60;;;6.30;55.12;97384.19;5032212;28;20112;-73
2021/03/29 02:18:38;;;;;;;42.40;22.42;;;8.00;55.80;;;6.28;56.17;97373.88;5027112;28;20037;-73
2021/03/29 02:21:07;;;;;;;16.77;9.15;;;8.00;56.00;;;6.29;55.14;97382.53;5027568;28;20120;-73
2021/03/29 02:23:33;;;;;;;10.07;4.50;;;7.90;55.50;;;6.28;54.20;97379.09;5025937;28;20041;-73
2021/03/29 02:26:00;;;;;;;6.00;3.47;;;7.80;54.70;;;6.25;53.73;97381.97;5041796;28;20085;-73
2021/03/29 02:28:26;;;;;;;4.88;2.88;;;7.70;54.60;;;6.23;53.81;97381.28;5046835;28;20106;-73
2021/03/29 02:30:52;;;;;;;8.75;3.20;;;7.70;54.70;;;6.20;54.13;97378.09;5010242;28;20030;-73
2021/03/29 02:33:18;;;;;;;9.43;3.30;;;7.70;55.00;;;6.16;54.54;97371.50;5011455;28;20424;-73
2021/03/29 02:35:44;;;;;;;6.28;3.13;;;7.70;55.10;;;6.13;54.40;97389.09;5013219;28;20033;-73
2021/03/29 02:38:15;;;;;;;31.08;19.58;;;7.60;55.30;;;6.12;55.65;97379.59;5011501;28;20037;-73
2021/03/29 02:40:42;;;;;;;55.08;33.95;;;7.70;56.20;;;6.10;54.33;97384.09;5013438;28;20025;-73
2021/03/29 02:43:07;;;;;;;14.00;9.25;;;7.70;56.20;;;6.09;54.21;97386.84;5013202;28;20053;-73
2021/03/29 02:45:36;;;;;;;9.00;4.20;;;7.70;55.70;;;6.08;54.73;97380.78;5030008;28;20572;-73
2021/03/29 02:48:10;;;;;;;8.82;3.28;;;7.60;55.80;;;6.05;55.71;97381.03;5028920;28;20033;-73
2021/03/29 02:50:41;;;;;;;6.97;3.08;;;7.60;55.80;;;6.02;55.70;97383.09;5011231;28;20037;-73
2021/03/29 02:53:26;;;;;;;6.35;3.53;;;7.60;55.60;;;5.99;56.11;97383.34;5011748;28;20041;-73
2021/03/29 02:55:53;;;;;;;5.38;2.97;;;7.50;55.50;;;5.96;54.34;97381.81;5013911;28;20036;-73
2021/03/29 02:58:23;;;;;;;7.18;3.70;;;7.60;55.70;;;5.95;55.16;97387.19;5029966;28;20033;-73
2021/03/29 03:00:49;;;;;;;6.28;3.17;;;7.50;56.00;;;5.93;55.28;97386.47;5013750;28;20045;-73
2021/03/29 03:03:15;;;;;;;7.47;3.15;;;7.50;56.00;;;5.88;54.82;97393.81;5028624;28;20085;-73
2021/03/29 03:05:40;;;;;;;7.03;3.58;;;7.50;56.20;;;5.85;54.80;97392.28;5010470;28;20116;-73
2021/03/29 03:08:07;;;;;;;6.93;3.30;;;7.50;56.00;;;5.84;54.57;97395.88;5014069;28;20060;-74
2021/03/29 03:10:36;;;;;;;6.22;3.58;;;7.40;56.00;;;5.82;56.05;97396.00;5024107;28;20044;-73
2021/03/29 03:13:07;;;;;;;7.28;4.20;;;7.40;55.90;;;5.84;56.27;97395.88;5021792;28;20052;-72
2021/03/29 03:15:33;;;;;;;10.15;6.35;;;7.40;56.50;;;5.84;55.11;97398.47;5047204;28;20025;-73
2021/03/29 03:18:02;;;;;;;16.08;9.45;;;7.50;56.70;;;5.82;56.07;97395.16;5026032;28;20029;-73
2021/03/29 03:20:29;;;;;;;26.15;16.42;;;7.50;57.10;;;5.80;56.07;97403.13;5027053;28;20743;-74
2021/03/29 03:23:04;;;;;;;26.00;17.05;;;7.50;57.30;;;5.80;57.69;97408.34;5040801;28;20096;-73
2021/03/29 03:25:37;;;;;;;24.05;15.80;;;7.50;57.30;;;5.81;57.66;97398.72;5026455;28;20481;-73
2021/03/29 03:28:12;;;;;;;25.73;16.77;;;7.50;57.20;;;5.81;57.32;97398.72;5011537;28;20086;-74
2021/03/29 03:30:44;;;;;;;10.43;6.57;;;7.50;56.60;;;5.78;56.49;97399.00;5029504;28;20064;-73
2021/03/29 03:33:11;;;;;;;7.07;4.28;;;7.50;56.20;;;5.71;56.17;97405.69;5009193;28;20037;-73
2021/03/29 03:35:38;;;;;;;5.22;3.40;;;7.30;56.70;;;5.71;55.76;97411.72;5010543;28;20049;-73
2021/03/29 03:38:14;;;;;;;5.53;3.10;;;7.40;56.80;;;5.68;57.14;97400.72;5023572;28;20261;-73
2021/03/29 03:40:43;;;;;;;6.63;3.05;;;7.30;56.60;;;5.66;56.48;97406.06;5040066;28;20068;-73
2021/03/29 03:43:09;;;;;;;6.30;3.10;;;7.20;56.50;;;5.63;55.85;97403.69;5025022;28;20759;-73
2021/03/29 03:45:41;;;;;;;5.72;2.50;;;7.20;56.40;;;5.63;56.42;97410.69;4993729;28;20033;-72
2021/03/29 03:48:07;;;;;;;4.13;2.33;;;7.20;56.10;;;5.61;55.65;97407.38;5010175;28;20051;-73
2021/03/29 03:50:33;;;;;;;4.65;2.90;;;7.10;55.80;;;5.57;55.48;97411.19;5029843;28;20504;-73
2021/03/29 03:52:59;;;;;;;5.90;3.10;;;7.10;56.00;;;5.53;55.66;97411.47;5025520;28;20175;-72
2021/03/29 03:55:25;;;;;;;7.50;2.55;;;7.10;56.10;;;5.51;55.29;97405.53;5009938;28;20109;-73
2021/03/29 03:57:51;;;;;;;4.75;2.70;;;7.10;56.10;;;5.50;55.55;97406.50;5031887;28;20036;-73
2021/03/29 04:00:18;;;;;;;7.68;2.60;;;7.00;56.10;;;5.48;55.41;97408.41;5033170;28;20033;-71
2021/03/29 04:02:45;;;;;;;5.05;2.67;;;6.90;56.20;;;5.46;55.21;97412.91;5016303;28;20536;-71
2021/03/29 04:05:14;;;;;;;7.25;3.00;;;6.90;56.30;;;5.45;55.77;97419.09;5008763;28;20124;-68
2021/03/29 04:07:40;;;;;;;7.40;2.50;;;6.90;56.30;;;5.41;55.28;97422.88;5056227;28;20037;-72
2021/03/29 04:10:16;;;;;;;8.18;2.95;;;6.90;56.50;;;5.40;55.49;97421.22;5024305;28;20546;-72
2021/03/29 04:12:45;;;;;;;7.65;2.92;;;6.90;56.50;;;5.40;55.42;97421.22;5030428;28;20029;-71
2021/03/29 04:15:14;;;;;;;7.85;3.00;;;6.90;56.50;;;5.40;56.18;97417.78;5046779;28;20029;-72
2021/03/29 04:17:40;;;;;;;5.93;2.83;;;6.90;56.30;;;5.38;55.56;97422.31;5028829;28;20033;-72
2021/03/29 04:20:07;;;;;;;9.38;4.00;;;6.90;56.40;;;5.39;56.07;97435.22;5045677;28;20112;-72
2021/03/29 04:22:33;;;;;;;6.60;2.92;;;7.00;56.40;;;5.36;55.52;97425.03;5028940;28;20148;-72
2021/03/29 04:24:58;;;;;;;5.55;2.35;;;7.00;56.40;;;5.36;55.60;97427.66;5044976;28;20504;-72
2021/03/29 04:27:24;;;;;;;5.97;2.55;;;6.90;56.30;;;5.33;55.56;97420.06;5016192;28;20041;-71
2021/03/29 04:29:50;;;;;;;5.25;2.67;;;6.80;56.50;;;5.29;55.95;97425.66;5045353;28;20033;-72
2021/03/29 04:32:16;;;;;;;6.13;2.78;;;6.70;56.70;;;5.19;56.06;97429.00;5044741;28;20029;-71
2021/03/29 04:34:41;;;;;;;4.35;2.80;;;6.60;57.00;;;5.16;55.73;97428.41;5042796;28;20112;-72
2021/03/29 04:37:07;;;;;;;7.97;2.75;;;6.60;57.30;;;5.11;56.36;97427.97;5045403;28;20037;-71
2021/03/29 04:39:33;;;;;;;5.82;3.05;;;6.50;57.50;;;5.02;56.64;97436.53;5033440;28;20046;-72
2021/03/29 04:41:58;;;;;;;6.85;3.10;;;6.40;58.00;;;4.98;56.47;97435.09;5025459;28;20114;-71
2021/03/29 04:44:24;;;;;;;5.20;2.80;;;6.30;58.10;;;4.91;56.43;97435.59;5020947;28;20118;-72
2021/03/29 04:46:50;;;;;;;6.63;2.85;;;6.30;58.40;;;4.86;56.74;97432.50;5027848;28;20508;-71
2021/03/29 04:49:16;;;;;;;6.18;3.05;;;6.20;58.70;;;4.80;56.91;97440.81;5034628;28;20126;-71
2021/03/29 04:51:41;;;;;;;6.32;3.22;;;6.20;58.80;;;4.76;57.08;97435.97;5045269;28;20647;-71
2021/03/29 04:54:07;;;;;;;5.10;3.00;;;6.20;59.10;;;4.74;56.68;97432.63;5045074;28;20773;-71
2021/03/29 04:56:33;;;;;;;11.05;3.40;;;6.20;58.80;;;4.75;56.69;97442.09;5028921;28;20040;-71
2021/03/29 04:58:59;;;;;;;5.47;3.10;;;6.20;58.80;;;4.74;57.10;97443.88;5041321;28;20116;-66
2021/03/29 05:01:25;;;;;;;6.43;3.15;;;6.30;58.90;;;4.73;57.11;97441.41;5027982;28;20116;-70
2021/03/29 05:03:51;;;;;;;10.73;3.88;;;6.20;59.10;;;4.73;57.15;97442.22;5045671;28;20169;-70
2021/03/29 05:06:16;;;;;;;10.95;5.72;;;6.40;58.90;;;4.75;57.18;97449.94;5028116;28;20053;-70
2021/03/29 05:08:42;;;;;;;7.32;5.07;;;6.30;59.50;;;4.75;57.50;97450.78;5027577;28;20033;-68
2021/03/29 05:11:09;;;;;;;8.75;4.15;;;6.40;59.40;;;4.76;57.69;97451.63;5028477;28;20131;-67
2021/03/29 05:13:35;;;;;;;6.32;3.70;;;6.40;59.10;;;4.75;57.55;97458.59;5046970;28;20560;-67
2021/03/29 05:16:01;;;;;;;6.68;3.50;;;6.30;59.70;;;4.73;57.83;97462.25;5036342;28;20045;-69
2021/03/29 05:18:27;;;;;;;5.10;3.35;;;6.30;59.20;;;4.72;57.80;97466.63;5029062;28;20092;-68
2021/03/29 05:20:54;;;;;;;7.05;3.10;;;6.30;59.30;;;4.72;57.70;97471.84;5012931;28;20578;-72
2021/03/29 05:23:20;;;;;;;8.45;3.78;;;6.30;59.00;;;4.70;58.46;97472.91;5027816;28;20112;-66
2021/03/29 05:25:46;;;;;;;9.40;3.80;;;6.30;59.10;;;4.68;57.74;97475.66;5053808;28;20599;-65
2021/03/29 05:28:12;;;;;;;22.35;13.15;;;6.30;59.00;;;4.68;57.65;97477.44;5048396;28;20409;-68
2021/03/29 05:30:37;;;;;;;16.05;8.45;;;6.30;59.20;;;4.69;57.82;97481.69;5012145;28;20540;-68
2021/03/29 05:33:03;;;;;;;13.40;7.28;;;6.40;58.90;;;4.68;57.92;97475.66;5045241;28;20779;-68
2021/03/29 05:35:29;;;;;;;13.75;7.10;;;6.40;59.00;;;4.69;57.95;97477.31;5054270;28;20047;-70
2021/03/29 05:37:55;;;;;;;11.40;5.95;;;6.40;58.80;;;4.69;57.98;97476.47;5027980;28;20026;-69
2021/03/29 05:40:21;;;;;;;9.52;5.40;;;6.50;58.70;;;4.73;58.02;97477.91;5015020;28;20575;-72
2021/03/29 05:42:47;;;;;;;10.23;5.07;;;6.50;58.70;;;4.76;58.08;97477.69;5008400;28;20053;-69
2021/03/29 05:45:14;;;;;;;9.43;4.65;;;6.60;58.60;;;4.80;58.27;97479.94;5046065;28;20444;-69
2021/03/29 05:47:40;;;;;;;12.85;4.90;;;6.60;58.60;;;4.83;58.29;97484.06;5045683;28;20043;-70
2021/03/29 05:50:17;;;;;;;7.70;4.88;;;6.70;58.40;;;4.89;58.49;97484.41;5047107;28;20781;-70
2021/03/29 05:52:43;;;;;;;18.02;11.05;;;6.80;57.90;;;4.93;58.39;97485.81;5017587;28;20146;-69
2021/03/29 05:55:15;;;;;;;6.40;3.78;;;6.90;57.40;;;5.01;58.39;97487.03;5030334;28;20103;-71
2021/03/29 06:00:39;;;;;;;6.63;3.50;;;7.10;57.60;;;5.18;58.52;97504.75;5028709;28;20592;-70
2021/03/29 06:03:31;;;;;;;7.10;3.00;;;7.20;56.00;;;5.29;58.32;97496.94;5027642;28;20148;-69
2021/03/29 06:06:12;;;;;;;7.53;3.67;;;7.30;55.20;;;5.38;57.69;97501.41;5042389;28;20029;-72
2021/03/29 06:08:48;;;;;;;7.05;3.45;;;7.30;54.70;;;5.44;57.50;97495.72;5029308;28;20523;-70
2021/03/29 06:11:32;;;;;;;8.40;3.45;;;7.50;54.30;;;5.54;56.51;97507.06;5027250;28;20048;-70
2021/03/29 06:14:17;;;;;;;7.63;3.40;;;7.60;53.80;;;5.66;56.35;97509.63;5026282;28;20037;-69
2021/03/29 06:17:02;;;;;;;8.30;3.70;;;7.70;53.10;;;5.76;56.55;97505.34;5027505;28;20071;-73
2021/03/29 06:19:54;;;;;;;15.07;5.30;;;7.80;53.00;;;5.86;55.57;97506.25;5014073;28;20467;-74
2021/03/29 06:22:21;;;;;;;12.63;5.30;;;7.90;51.90;;;5.98;56.31;97512.28;5037976;28;20065;-74
2021/03/29 06:25:01;;;;;;;9.32;3.58;;;8.20;51.70;;;6.09;55.17;97507.81;5028096;28;20068;-69
2021/03/29 06:27:47;;;;;;;6.80;3.20;;;8.40;50.60;;;6.22;54.56;97512.88;5013562;28;20091;-70
2021/03/29 06:30:35;;;;;;;6.85;3.03;;;8.50;49.50;;;6.39;54.27;97519.31;5026762;28;20421;-70
2021/03/29 06:33:13;;;;;;;5.50;2.22;;;8.70;48.60;;;6.55;53.99;97513.63;5024588;28;20072;-70
2021/03/29 06:35:45;;;;;;;13.45;4.60;;;9.10;48.40;;;6.72;53.95;97526.09;5050479;28;20040;-69
2021/03/29 06:38:24;;;;;;;6.60;2.50;;;9.40;47.40;;;6.87;52.48;97516.13;5045457;28;20026;-71
2021/03/29 06:40:55;;;;;;;5.18;2.33;;;9.50;46.60;;;6.99;53.35;97517.69;5037939;28;20041;-67
2021/03/29 06:43:20;;;;;;;6.88;2.55;;;9.60;46.20;;;7.14;52.93;97519.00;5049447;28;20044;-66
2021/03/29 06:45:48;;;;;;;8.00;2.58;;;9.70;46.10;;;7.27;52.96;97516.97;5040817;28;20033;-71
2021/03/29 06:48:36;;;;;;;7.75;2.45;;;9.80;46.30;;;7.47;51.96;97522.25;5034986;28;20512;-70
2021/03/29 06:51:09;;;;;;;5.75;2.47;;;10.10;46.00;;;7.65;53.41;97518.00;5013992;28;20083;-71
2021/03/29 06:53:46;;;;;;;11.35;3.05;;;10.40;45.50;;;7.90;51.87;97525.34;5038602;28;20036;-69
2021/03/29 06:56:42;;;;;;;6.00;2.65;;;10.70;44.40;;;8.18;50.75;97530.75;5048896;28;20032;-68
2021/03/29 06:59:22;;;;;;;5.35;2.97;;;11.00;43.60;;;8.45;50.60;97525.63;5024721;28;20177;-69
2021/03/29 07:01:51;;;;;;;4.28;2.40;;;11.30;42.50;;;8.71;51.04;97530.28;5034137;28;20188;-70
2021/03/29 07:04:22;;;;;;;7.13;2.50;;;11.60;42.10;;;8.98;50.21;97521.63;5039741;28;20116;-68
2021/03/29 07:06:48;;;;;;;6.05;2.50;;;11.90;41.30;;;9.23;50.58;97525.38;5012817;28;20044;-69
2021/03/29 07:09:14;;;;;;;4.90;2.50;;;12.10;40.40;;;9.52;50.41;97528.69;5029683;28;20120;-70
2021/03/29 07:11:40;;;;;;;9.20;3.10;;;12.60;38.60;;;9.74;49.59;97528.28;5029449;28;20037;-69
2021/03/29 07:14:07;;;;;;;14.10;5.03;;;12.90;38.10;;;10.01;49.11;97529.19;5027011;28;20864;-69
2021/03/29 07:16:33;;;;;;;7.28;2.40;;;13.20;37.60;;;10.31;48.85;97523.56;5009944;28;20117;-71
2021/03/29 07:19:02;;;;;;;9.40;3.03;;;13.70;37.10;;;10.61;47.60;97524.09;5033747;28;20457;-68
2021/03/29 07:21:29;;;;;;;7.30;3.00;;;14.10;36.20;;;10.93;47.34;97524.31;5016353;28;20060;-63
2021/03/29 07:24:04;;;;;;;8.50;2.90;;;14.80;35.40;;;11.35;45.70;97524.38;5046676;28;20029;-64
2021/03/29 07:26:58;;;;;;;6.13;2.78;;;15.60;33.60;;;11.81;43.08;97534.59;5023283;28;20496;-73
2021/03/29 07:29:32;;;;;;;7.57;2.60;;;15.90;33.00;;;12.22;44.47;97533.66;5018052;28;20034;-68
2021/03/29 07:32:05;;;;;;;9.38;2.75;;;16.60;32.40;;;12.58;43.22;97533.31;5037617;28;20030;-69
2021/03/29 07:34:51;;;;;;;10.23;3.55;;;16.60;32.10;;;12.94;42.17;97523.22;5016304;28;20041;-67
2021/03/29 07:37:47;;;;;;;9.48;3.90;;;16.90;31.30;;;13.30;40.75;97528.91;5025520;28;20607;-69
2021/03/29 07:40:16;;;;;;;6.10;2.47;;;17.50;30.80;;;13.71;42.55;97520.78;5056658;28;20070;-70
2021/03/29 07:42:41;;;;;;;6.45;2.30;;;17.90;30.10;;;14.07;42.52;97523.72;5044913;28;20049;-71
2021/03/29 07:45:16;;;;;;;8.45;3.42;;;18.50;29.60;;;14.46;40.71;97526.25;5012005;28;20041;-69
2021/03/29 07:47:51;;;;;;;7.32;2.38;;;18.80;28.90;;;14.85;40.36;97528.72;4994330;28;20426;-67
2021/03/29 07:50:29;;;;;;;4.13;2.08;;;19.30;27.90;;;15.27;37.66;97520.16;5026525;28;20163;-69
2021/03/29 07:53:04;;;;;;;6.93;2.50;;;20.00;27.70;;;15.66;37.00;97523.53;5041607;28;20121;-71
2021/03/29 07:55:34;;;;;;;4.15;2.05;;;20.10;26.80;;;16.01;39.44;97528.00;5038676;28;20119;-69
2021/03/29 07:58:14;;;;;;;7.00;2.20;;;20.90;26.30;;;16.42;35.38;97520.25;5028823;28;20471;-69
2021/03/29 08:00:42;;;;;;;4.75;2.10;;;21.10;25.20;;;16.83;37.20;97523.06;5024993;28;20140;-67
2021/03/29 08:03:11;;;;;;;5.88;2.05;;;21.60;25.00;;;17.28;36.54;97515.56;5023391;28;20121;-67
2021/03/29 08:05:37;;;;;;;5.65;2.50;;;22.10;24.70;;;17.70;37.36;97524.41;5054583;28;20032;-69
2021/03/29 08:08:04;;;;;;;6.63;2.40;;;22.30;23.80;;;18.11;36.21;97520.84;5046593;28;20134;-68
2021/03/29 08:11:18;;;;;;;15.48;6.80;;;22.90;23.30;;;18.46;31.96;97518.84;5012016;28;20088;-69
2021/03/29 08:13:54;;;;;;;6.88;2.45;;;22.70;23.20;;;18.84;32.08;97511.91;5025418;28;20032;-72
2021/03/29 08:16:24;;;;;;;6.97;2.30;;;23.70;22.80;;;19.22;33.21;97525.38;4992478;28;20109;-71
2021/03/29 08:19:18;;;;;;;3.38;1.77;;;23.90;22.80;;;19.60;32.30;97510.50;5027667;28;20090;-68
2021/03/29 08:22:20;;;;;;;5.40;1.90;;;24.50;21.80;;;19.85;30.08;97506.09;5038293;28;20044;-66
2021/03/29 08:24:47;;;;;;;4.00;1.88;;;24.30;21.50;;;20.18;34.27;97512.06;5030551;28;20051;-66
2021/03/29 08:27:15;;;;;;;7.63;2.58;;;25.00;21.70;;;20.40;31.56;97511.72;5044938;28;20453;-67
2021/03/29 08:29:43;;;;;;;6.55;2.20;;;25.20;21.00;;;20.64;31.72;97510.13;5037009;28;20049;-66
2021/03/29 08:32:37;;;;;;;4.28;2.13;;;25.40;20.70;;;20.82;28.63;97509.34;5037528;28;20065;-68
2021/03/29 08:35:18;;;;;;;3.72;2.08;;;25.60;20.50;;;21.06;28.96;97511.22;5023370;28;20040;-65
2021/03/29 08:37:54;;;;;;;3.47;2.20;;;25.60;19.80;;;21.17;29.21;97515.81;5060688;28;20027;-69
2021/03/29 08:40:27;;;;;;;6.03;2.20;;;25.60;20.50;;;21.26;28.12;97519.84;5055827;28;20029;-71
2021/03/29 08:42:55;;;;;;;6.43;2.30;;;25.40;20.20;;;21.26;29.63;97517.19;5028858;28;20068;-70
2021/03/29 08:45:23;;;;;;;6.68;3.20;;;25.20;20.90;;;21.24;29.47;97521.94;5033143;28;20404;-71
2021/03/29 08:47:52;;;;;;;5.00;2.17;;;25.60;20.70;;;21.46;29.00;97521.50;5017190;28;20048;-68
2021/03/29 08:50:34;;;;;;;3.13;1.90;;;26.30;20.80;;;21.65;28.00;97517.78;5047269;28;20045;-69
2021/03/29 08:53:11;;;;;;;6.40;2.20;;;26.50;20.10;;;21.89;27.67;97524.91;5015712;28;20083;-72
2021/03/29 08:55:39;;;;;;;4.95;1.80;;;26.60;20.00;;;22.06;28.65;97522.44;5017294;28;20448;-69
2021/03/29 08:58:05;;;;;;;4.80;1.90;;;26.20;19.30;;;22.28;28.49;97520.91;5027716;28;20048;-71
2021/03/29 09:00:39;;;;;;;6.80;2.50;;;26.30;19.20;;;22.41;26.62;97519.06;5046054;28;20065;-75
2021/03/29 09:03:23;;;;;;;5.50;2.45;;;26.20;19.40;;;22.57;26.63;97529.13;5027060;28;20072;-69
2021/03/29 09:05:49;;;;;;;6.80;2.28;;;26.50;19.90;;;22.73;27.19;97523.09;5046959;28;20032;-74
2021/03/29 09:08:16;;;;;;;5.25;1.88;;;26.00;18.90;;;22.87;27.61;97519.19;5014711;28;20041;-73
2021/03/29 09:10:43;;;;;;;4.93;2.10;;;25.80;19.50;;;22.89;26.53;97527.00;5032140;28;20033;-73
2021/03/29 09:13:11;;;;;;;4.82;2.13;;;25.60;19.40;;;23.10;26.17;97522.94;5030411;28;20088;-70
2021/03/29 09:15:44;;;;;;;4.25;2.53;;;25.80;18.60;;;23.40;24.88;97528.16;5031941;28;20029;-68
2021/03/29 09:18:23;;;;;;;4.13;2.03;;;26.30;19.70;;;23.69;23.93;97527.19;5026269;28;20065;-70
2021/03/29 09:20:51;;;;;;;4.63;2.92;;;26.60;19.20;;;23.92;25.83;97530.84;5047784;28;20091;-71
2021/03/29 09:23:28;;;;;;;5.32;2.40;;;26.70;20.00;;;24.11;23.92;97535.81;5046273;28;20039;-71
2021/03/29 09:25:54;;;;;;;4.93;2.05;;;26.70;19.50;;;24.29;26.08;97532.16;5032338;28;20040;-70
2021/03/29 09:31:09;;;;;;;3.53;1.60;;;26.80;19.20;;;24.74;23.58;97542.88;5045140;28;20038;-69
2021/03/29 09:33:35;;;;;;;;;;;27.10;19.00;;;24.94;23.32;97542.41;5011193;28;20069;-70
2021/03/29 09:36:09;;;;;;;3.88;1.70;;;27.20;19.20;;;25.25;23.48;97532.94;5039254;28;19928;-70
2021/03/29 09:38:39;;;;;;;3.58;1.88;;;27.40;18.80;;;25.27;24.77;97538.06;5013803;28;20547;-71
2021/03/29 09:41:18;;;;;;;3.65;1.90;;;26.80;19.70;;;25.14;22.66;97535.75;5027276;28;20041;-69
2021/03/29 09:43:44;;;;;;;3.35;1.65;;;27.00;19.40;;;24.90;24.68;97549.34;5046855;28;20117;-70
2021/03/29 09:46:10;;;;;;;5.05;1.88;;;26.50;19.70;;;24.72;24.81;97546.88;5030736;28;20543;-69
2021/03/29 09:48:36;;;;;;;4.53;1.95;;;26.60;19.30;;;24.67;24.88;97544.94;5031476;28;20078;-70
2021/03/29 09:51:02;;;;;;;3.88;1.80;;;27.20;18.80;;;24.76;23.84;97548.03;5036725;28;20068;-68
2021/03/29 09:53:34;;;;;;;5.75;2.03;;;27.30;18.40;;;24.74;23.37;97542.06;5029445;28;20079;-68
2021/03/29 09:56:04;;;;;;;4.22;1.70;;;27.10;18.60;;;24.85;24.06;97535.78;5047678;28;20029;-68
2021/03/29 09:58:32;;;;;;;7.05;2.88;;;27.70;18.40;;;25.02;23.95;97550.09;5045348;28;20036;-70
2021/03/29 10:01:04;;;;;;;4.30;2.13;;;27.70;18.60;;;25.06;22.88;97550.41;5020480;28;20038;-69
2021/03/29 10:03:29;;;;;;;6.15;2.92;;;27.70;18.00;;;24.97;24.30;97544.59;5034959;28;20053;-69
2021/03/29 10:05:56;;;;;;;4.97;2.05;;;27.40;18.90;;;24.88;24.18;97540.66;5045787;28;20067;-68
2021/03/29 10:08:30;;;;;;;5.20;1.88;;;27.30;18.30;;;25.22;22.35;97538.00;5030754;28;20087;-68
2021/03/29 10:11:06;;;;;;;3.53;1.98;;;27.70;18.10;;;25.71;21.76;97541.66;5025676;28;20415;-68
2021/03/29 10:13:37;;;;;;;4.03;1.98;;;28.00;18.10;;;26.48;21.74;97532.56;5030121;28;20061;-68
2021/03/29 10:16:22;;;;;;;4.22;1.83;;;28.60;17.30;;;27.31;20.61;97530.25;5046167;28;20025;-69
2021/03/29 10:19:18;;;;;;;5.13;1.70;;;29.00;17.10;;;28.08;20.29;97539.59;5047604;28;20397;-69
2021/03/29 10:22:23;;;;;;;3.17;1.42;;;29.20;17.10;;;28.89;19.43;97535.16;5032821;28;20025;-67
2021/03/29 10:25:12;;;;;;;6.35;1.75;;;30.10;16.10;;;29.47;18.43;97529.41;4966040;28;20422;-70
2021/03/29 10:27:45;;;;;;;4.82;1.88;;;30.40;15.80;;;29.97;18.29;97531.13;5019720;28;20052;-66
2021/03/29 10:30:20;;;;;;;6.75;3.22;;;30.50;15.20;;;30.31;17.91;97528.50;5047637;28;20036;-68
2021/03/29 10:32:53;;;;;;;5.75;1.70;;;30.30;15.80;;;30.74;17.72;97517.91;5060679;28;20037;-67
2021/03/29 10:35:23;;;;;;;3.95;1.48;;;31.20;14.90;;;31.07;17.09;97521.72;5039972;28;20397;-67
2021/03/29 10:37:48;;;;;;;;;;;31.00;14.40;;;31.35;16.84;97514.69;5039968;28;20493;-67
2021/03/29 10:40:14;;;;;;;5.00;1.42;;;31.30;14.50;;;31.58;18.93;97513.88;5027146;28;19944;-67
2021/03/29 10:42:41;;;;;;;3.28;2.00;;;31.70;14.90;;;31.79;18.20;97509.03;5032667;28;20037;-67
2021/03/29 10:45:13;;;;;;;3.88;1.50;;;32.00;14.40;;;32.07;16.98;97507.28;5026110;28;20042;-66
2021/03/29 10:47:40;;;;;;;4.45;2.08;;;32.30;14.40;;;32.10;18.11;97509.44;5019465;28;20438;-66
2021/03/29 10:50:10;;;;;;;3.80;1.73;;;31.20;15.00;;;32.18;17.92;97497.91;5044445;28;20044;-67